TW-0010 weather

Far Eastern Memorial Hospital Heliport
Taipei, Taipei (municipality), Taiwan

Public forecast

Using degrees Celsius for public forecast. Weather courtesy of forecast.io.

Closest aviation weather report (METAR) to Far Eastern Memorial Hospital Heliport

Closest report is Taipei Songshan Airport, 6.9 nm (12.8 km) NE. Retrieved 2019/11/14 12:30 UTC (13 minutes ago):

RCSS 141230Z 09010KT 7000 -RA FEW008 BKN032 20/16 Q1020 NOSIG RMK A3012

Closest aviation forecast (TAF) to Far Eastern Memorial Hospital Heliport

Closest forecast is Taipei Songshan Airport, 6.9 nm (12.8 km) NE. Retrieved 2019/11/14 12:00 UTC (43 minutes ago):

TAF RCSS 141100Z 1412/1512 09012KT 9999 FEW020 BKN032 TEMPO 1412/1417 FEW010 BKN020 BKN040 TEMPO 1418/1424 09007KT TEMPO 1503/1509 10017KT